createdAt,value
2023-10-19T00:01:16.919Z,92.75
2023-10-19T00:03:45.335Z,92.60
2023-10-19T00:06:12.739Z,92.91
2023-10-19T00:08:45.428Z,92.67
2023-10-19T00:11:22.750Z,91.88
2023-10-19T00:13:55.058Z,92.07
2023-10-19T00:16:27.692Z,93.24
2023-10-19T00:18:54.342Z,92.94
2023-10-19T00:21:24.701Z,91.51
2023-10-19T00:24:00.844Z,91.95
2023-10-19T00:26:28.150Z,91.58
2023-10-19T00:29:06.514Z,91.83
2023-10-19T00:31:38.027Z,92.63
2023-10-19T00:34:04.970Z,92.64
2023-10-19T00:36:32.201Z,92.54
2023-10-19T00:39:01.701Z,93.01
2023-10-19T00:41:31.535Z,92.09
2023-10-19T00:44:08.566Z,92.44
2023-10-19T00:46:41.036Z,92.06
2023-10-19T00:49:10.532Z,92.38
2023-10-19T00:51:56.850Z,92.11
2023-10-19T00:54:50.074Z,93.45
2023-10-19T00:57:23.781Z,93.35
2023-10-19T00:59:53.797Z,92.82
2023-10-19T01:02:22.470Z,93.49
2023-10-19T01:05:01.619Z,92.92
2023-10-19T01:07:30.427Z,93.64
2023-10-19T01:10:07.085Z,93.76
2023-10-19T01:12:33.705Z,93.35
2023-10-19T01:15:29.371Z,92.63
2023-10-19T01:17:59.907Z,92.98
2023-10-19T01:20:31.662Z,92.12
2023-10-19T01:23:10.247Z,92.25
2023-10-19T01:26:01.762Z,92.80
2023-10-19T01:28:49.172Z,93.19
2023-10-19T01:31:19.278Z,92.75
2023-10-19T01:33:46.093Z,92.35
2023-10-19T01:36:22.817Z,92.18
2023-10-19T01:38:49.962Z,92.86
2023-10-19T01:41:19.691Z,93.15
2023-10-19T01:43:49.393Z,92.08
2023-10-19T01:46:27.423Z,92.89
2023-10-19T01:48:56.531Z,93.11
2023-10-19T01:51:25.901Z,92.57
2023-10-19T01:53:52.454Z,92.58
2023-10-19T01:56:19.844Z,93.32
2023-10-19T01:58:47.984Z,93.19
2023-10-19T02:01:21.769Z,92.83
2023-10-19T02:03:54.441Z,91.92
2023-10-19T02:06:21.524Z,91.64
2023-10-19T02:08:53.063Z,91.87
2023-10-19T02:11:26.902Z,93.04
2023-10-19T02:13:55.548Z,92.54
2023-10-19T02:16:23.536Z,92.95
2023-10-19T02:18:52.248Z,93.27
2023-10-19T02:21:23.460Z,92.84
2023-10-19T02:23:53.496Z,92.56
2023-10-19T02:26:29.680Z,92.16
2023-10-19T02:28:57.425Z,92.13
2023-10-19T02:31:28.420Z,92.85
2023-10-19T02:34:01.806Z,93.14
2023-10-19T02:36:30.180Z,93.09
2023-10-19T02:39:10.981Z,93.61
2023-10-19T02:41:45.426Z,92.68
2023-10-19T02:44:19.578Z,92.55
2023-10-19T02:46:53.540Z,92.91
2023-10-19T02:49:22.296Z,93.03
2023-10-19T02:51:50.888Z,92.31
2023-10-19T02:54:25.679Z,92.56
2023-10-19T02:56:55.157Z,92.11
2023-10-19T02:59:24.058Z,92.17
2023-10-19T03:02:02.760Z,92.17
2023-10-19T03:04:30.527Z,92.52
2023-10-19T03:06:57.585Z,92.25
2023-10-19T03:09:30.987Z,91.39
2023-10-19T03:12:04.897Z,91.98
2023-10-19T03:14:33.046Z,92.02
2023-10-19T03:17:01.422Z,91.98
2023-10-19T03:19:28.675Z,92.69
2023-10-19T03:21:56.675Z,92.18
2023-10-19T03:24:42.223Z,93.21
2023-10-19T03:27:14.443Z,93.07
2023-10-19T03:29:41.768Z,92.92
2023-10-19T03:32:08.747Z,92.96
2023-10-19T03:34:39.160Z,92.90
2023-10-19T03:37:08.265Z,93.32
2023-10-19T03:39:39.092Z,92.90
2023-10-19T03:42:09.159Z,92.72
2023-10-19T03:44:54.573Z,93.05
2023-10-19T03:47:22.190Z,93.29
2023-10-19T03:49:49.969Z,92.98
2023-10-19T03:52:16.696Z,93.47
2023-10-19T03:54:43.590Z,93.41
2023-10-19T03:57:13.772Z,92.66
2023-10-19T03:59:41.289Z,93.62
2023-10-19T04:02:16.702Z,93.53
2023-10-19T04:04:50.059Z,93.50
2023-10-19T04:07:37.580Z,93.03
2023-10-19T04:10:10.113Z,92.63
2023-10-19T04:12:38.621Z,92.11
2023-10-19T04:15:22.905Z,92.68
2023-10-19T04:17:50.196Z,92.99
2023-10-19T04:20:20.480Z,92.61
2023-10-19T04:22:48.759Z,92.29
2023-10-19T04:25:26.593Z,93.30
2023-10-19T04:27:53.275Z,92.80
2023-10-19T04:30:28.764Z,92.11
2023-10-19T04:32:59.388Z,92.77
2023-10-19T04:35:30.862Z,93.04
2023-10-19T04:37:58.061Z,93.04
2023-10-19T04:40:25.181Z,93.19
2023-10-19T04:42:53.209Z,93.38
2023-10-19T04:45:20.050Z,92.74
2023-10-19T04:47:47.814Z,92.99
2023-10-19T04:50:14.689Z,93.06
2023-10-19T04:52:41.694Z,93.54
2023-10-19T04:55:08.715Z,93.11
2023-10-19T04:57:36.040Z,93.91
2023-10-19T05:00:04.552Z,93.28
2023-10-19T05:02:31.273Z,93.59
2023-10-19T05:04:57.973Z,93.33
2023-10-19T05:07:24.672Z,92.59
2023-10-19T05:09:51.718Z,92.68
2023-10-19T05:12:19.892Z,92.47
2023-10-19T05:14:46.901Z,92.68
2023-10-19T05:17:15.012Z,92.67
2023-10-19T05:19:41.741Z,92.40
2023-10-19T05:22:09.960Z,92.54
2023-10-19T05:24:37.584Z,92.15
2023-10-19T05:27:04.777Z,92.68
2023-10-19T05:29:34.545Z,92.48
2023-10-19T05:32:01.829Z,92.18
2023-10-19T05:34:30.757Z,91.89
2023-10-19T05:37:00.251Z,91.61
2023-10-19T05:39:30.065Z,91.19
2023-10-19T05:41:56.722Z,91.45
2023-10-19T05:44:26.122Z,91.67
2023-10-19T05:46:53.097Z,91.49
2023-10-19T05:49:19.751Z,91.74
2023-10-19T05:51:46.348Z,91.46
2023-10-19T05:54:13.550Z,91.45
2023-10-19T05:56:40.498Z,91.15
2023-10-19T05:59:07.880Z,91.31
2023-10-19T06:01:34.722Z,91.39
2023-10-19T06:04:01.562Z,91.10
2023-10-19T06:06:28.199Z,90.63
2023-10-19T06:08:55.133Z,91.26
2023-10-19T06:11:22.472Z,91.03
2023-10-19T06:13:49.318Z,91.54
2023-10-19T06:16:16.353Z,91.09
2023-10-19T06:18:44.775Z,91.27
2023-10-19T06:21:13.418Z,91.07
2023-10-19T06:23:40.085Z,90.90
2023-10-19T06:26:13.582Z,91.51
2023-10-19T06:28:42.758Z,91.49
2023-10-19T06:31:09.902Z,90.76
2023-10-19T06:33:37.399Z,90.65
2023-10-19T06:36:04.781Z,90.64
2023-10-19T06:38:32.644Z,90.42
2023-10-19T06:41:00.879Z,90.76
2023-10-19T06:43:31.844Z,90.81
2023-10-19T06:45:59.610Z,90.56
2023-10-19T06:48:26.260Z,90.73
2023-10-19T06:50:53.079Z,90.66
2023-10-19T06:53:19.769Z,90.66
2023-10-19T06:55:47.824Z,91.14
2023-10-19T06:58:15.893Z,91.02
2023-10-19T07:00:48.087Z,91.07
2023-10-19T07:03:15.155Z,91.47
2023-10-19T07:05:41.781Z,91.42
2023-10-19T07:08:08.459Z,91.64
2023-10-19T07:10:36.133Z,91.16
2023-10-19T07:13:03.550Z,91.02
2023-10-19T07:15:31.501Z,90.99
2023-10-19T07:17:59.352Z,90.34
2023-10-19T07:20:39.812Z,90.00
2023-10-19T07:23:22.744Z,89.54
2023-10-19T07:25:55.405Z,88.52
2023-10-19T07:28:23.213Z,88.56
2023-10-19T07:30:52.316Z,88.05
2023-10-19T07:33:20.533Z,87.80
2023-10-19T07:35:48.872Z,88.08
2023-10-19T07:38:16.225Z,87.64
2023-10-19T07:40:44.837Z,87.68
2023-10-19T07:43:11.738Z,87.72
2023-10-19T07:45:38.818Z,87.11
2023-10-19T07:48:11.820Z,86.60
2023-10-19T07:50:41.746Z,86.91
2023-10-19T07:53:09.346Z,87.17
2023-10-19T07:55:36.647Z,87.67
2023-10-19T07:58:04.647Z,87.96
2023-10-19T08:00:32.137Z,87.29
2023-10-19T08:02:59.686Z,87.28
2023-10-19T08:05:27.527Z,86.74
2023-10-19T08:07:54.399Z,86.78
2023-10-19T08:10:21.840Z,86.24
2023-10-19T08:12:49.990Z,86.58
2023-10-19T08:15:17.727Z,86.18
2023-10-19T08:18:13.909Z,85.73
2023-10-19T08:20:52.072Z,85.85
2023-10-19T08:26:41.579Z,85.62
2023-10-19T08:29:14.017Z,85.38
2023-10-19T08:31:45.543Z,85.77
2023-10-19T08:37:45.213Z,85.38
2023-10-19T08:40:24.184Z,85.77
2023-10-19T08:42:56.674Z,85.69
2023-10-19T08:45:48.743Z,85.44
2023-10-19T08:51:23.099Z,84.90
2023-10-19T09:00:15.172Z,84.90
2023-10-19T09:02:52.240Z,84.48
2023-10-19T09:05:29.193Z,85.10
2023-10-19T09:08:05.358Z,85.75
2023-10-19T09:10:47.441Z,85.90
2023-10-19T09:13:37.766Z,86.03
2023-10-19T09:16:48.383Z,86.74
2023-10-19T09:20:03.738Z,86.82
2023-10-19T09:22:49.692Z,86.44
2023-10-19T09:25:16.512Z,87.47
2023-10-19T09:27:44.804Z,87.54
2023-10-19T09:30:14.318Z,87.90
2023-10-19T09:33:07.309Z,87.25
2023-10-19T09:36:00.782Z,87.40
2023-10-19T09:38:42.997Z,87.34
2023-10-19T09:42:41.326Z,87.73
2023-10-19T09:49:20.599Z,87.71
2023-10-19T09:51:07.080Z,88.35
2023-10-19T09:53:35.323Z,88.81
2023-10-19T09:56:12.474Z,88.54
2023-10-19T09:59:01.607Z,88.88
2023-10-19T10:02:13.984Z,89.25
2023-10-19T10:04:42.585Z,88.97
2023-10-19T10:07:14.223Z,89.23
2023-10-19T10:09:45.561Z,89.53
2023-10-19T10:12:28.076Z,89.58
2023-10-19T10:14:59.672Z,89.45
2023-10-19T10:17:36.605Z,89.56
2023-10-19T10:20:21.181Z,89.55
2023-10-19T10:23:55.548Z,89.93
2023-10-19T10:26:31.531Z,89.38
2023-10-19T10:29:42.646Z,89.48
2023-10-19T10:33:06.983Z,90.00
2023-10-19T10:35:59.055Z,89.71
2023-10-19T10:38:36.932Z,90.31
2023-10-19T10:48:21.662Z,89.65
2023-10-19T10:50:48.347Z,89.16
2023-10-19T10:53:18.706Z,88.33
2023-10-19T10:55:48.457Z,88.20
2023-10-19T10:58:18.839Z,88.58
2023-10-19T11:00:48.310Z,89.17
2023-10-19T11:03:34.616Z,89.55
2023-10-19T11:06:27.014Z,88.68
2023-10-19T11:09:11.195Z,88.38
2023-10-19T11:11:44.349Z,88.19
2023-10-19T11:14:19.929Z,88.01
2023-10-19T11:16:47.176Z,87.83
2023-10-19T11:19:19.141Z,88.39
2023-10-19T11:21:57.540Z,87.64
2023-10-19T11:24:33.325Z,87.65
2023-10-19T11:27:00.105Z,87.14
2023-10-19T11:29:26.752Z,87.60
2023-10-19T11:32:05.595Z,87.60
2023-10-19T11:34:42.166Z,87.29
2023-10-19T11:37:09.263Z,87.29
2023-10-19T11:39:35.822Z,87.03
2023-10-19T11:42:02.533Z,87.29
2023-10-19T11:44:30.233Z,88.03
2023-10-19T11:46:57.104Z,87.48
2023-10-19T11:49:26.761Z,87.58
2023-10-19T11:51:53.987Z,87.46
2023-10-19T11:54:20.971Z,87.42
2023-10-19T11:56:47.704Z,87.83
2023-10-19T11:59:14.290Z,88.09
2023-10-19T12:01:40.956Z,87.82
2023-10-19T12:04:07.637Z,87.63
2023-10-19T12:06:34.233Z,87.54
2023-10-19T12:09:07.125Z,88.43
2023-10-19T12:11:33.920Z,87.34
2023-10-19T12:14:04.969Z,87.42
2023-10-19T12:16:33.228Z,87.78
2023-10-19T12:18:59.847Z,88.17
2023-10-19T12:21:28.859Z,88.22
2023-10-19T12:23:57.544Z,88.06
2023-10-19T12:26:25.847Z,88.53
2023-10-19T12:28:52.855Z,88.61
2023-10-19T12:31:20.474Z,88.45
2023-10-19T12:33:47.527Z,88.90
2023-10-19T12:36:29.369Z,89.16
2023-10-19T12:38:56.429Z,89.09
2023-10-19T12:41:23.685Z,89.09
2023-10-19T12:43:58.962Z,88.85
2023-10-19T12:46:26.440Z,88.84
2023-10-19T12:48:53.785Z,88.24
2023-10-19T12:51:24.732Z,87.90
2023-10-19T12:53:55.021Z,87.91
2023-10-19T12:56:22.334Z,87.19
2023-10-19T12:58:49.701Z,88.26
2023-10-19T13:01:20.208Z,87.61
2023-10-19T13:03:48.009Z,88.32
2023-10-19T13:06:15.378Z,88.14
2023-10-19T13:08:43.010Z,88.42
2023-10-19T13:11:17.455Z,88.26
2023-10-19T13:13:45.558Z,89.03
2023-10-19T13:16:12.430Z,89.01
2023-10-19T13:18:41.605Z,88.38
2023-10-19T13:21:12.471Z,89.05
2023-10-19T13:23:39.981Z,88.66
2023-10-19T13:26:17.796Z,89.35
2023-10-19T13:28:48.507Z,89.14
2023-10-19T13:31:16.043Z,88.81
2023-10-19T13:33:42.958Z,88.46
2023-10-19T13:36:09.930Z,88.68
2023-10-19T13:38:36.879Z,88.81
2023-10-19T13:41:10.543Z,88.47
2023-10-19T13:43:39.471Z,88.54
2023-10-19T13:46:06.823Z,88.97
2023-10-19T13:48:33.644Z,88.94
2023-10-19T13:51:13.535Z,88.92
2023-10-19T13:53:41.453Z,88.90
2023-10-19T13:56:10.862Z,89.11
2023-10-19T13:58:38.973Z,88.16
2023-10-19T14:01:10.470Z,87.79
2023-10-19T14:03:39.030Z,88.25
2023-10-19T14:06:06.602Z,89.33
2023-10-19T14:08:33.743Z,89.76
2023-10-19T14:11:04.247Z,89.81
2023-10-19T14:13:31.092Z,89.98
2023-10-19T14:15:57.707Z,90.30
2023-10-19T14:18:24.346Z,90.18
2023-10-19T14:20:53.132Z,90.57
2023-10-19T14:23:19.776Z,90.06
2023-10-19T14:25:46.522Z,89.76
2023-10-19T14:28:13.317Z,89.60
2023-10-19T14:30:40.113Z,88.93
2023-10-19T14:33:11.967Z,89.83
2023-10-19T14:35:43.004Z,90.69
2023-10-19T14:38:10.734Z,90.36
2023-10-19T14:40:37.618Z,89.75
2023-10-19T14:45:55.245Z,89.56
2023-10-19T14:48:23.726Z,89.42
2023-10-19T14:50:52.130Z,88.74
2023-10-19T14:53:19.161Z,89.52
2023-10-19T14:55:48.853Z,88.55
2023-10-19T14:58:15.968Z,89.03
2023-10-19T15:00:47.729Z,88.87
2023-10-19T15:03:15.034Z,89.46
2023-10-19T15:05:43.148Z,90.00
2023-10-19T15:08:12.494Z,90.21
2023-10-19T15:10:45.039Z,90.05
2023-10-19T15:13:11.852Z,89.92
2023-10-19T15:15:38.624Z,90.30
2023-10-19T15:18:05.385Z,90.99
2023-10-19T15:20:36.658Z,90.76
2023-10-19T15:23:05.315Z,90.61
2023-10-19T15:25:32.400Z,90.81
2023-10-19T15:27:59.101Z,90.97
2023-10-19T15:30:25.868Z,90.45
2023-10-19T15:32:57.153Z,90.64
2023-10-19T15:35:27.194Z,90.89
2023-10-19T15:37:58.225Z,91.04
2023-10-19T15:40:26.187Z,91.05
2023-10-19T15:42:56.318Z,91.13
2023-10-19T15:48:13.504Z,91.42
2023-10-19T15:50:42.156Z,91.03
2023-10-19T15:53:08.842Z,90.01
2023-10-19T15:55:41.569Z,90.54
2023-10-19T15:58:13.797Z,90.60
2023-10-19T16:01:19.342Z,90.52
2023-10-19T16:04:40.123Z,91.23
2023-10-19T16:07:14.086Z,91.03
2023-10-19T16:09:52.574Z,90.94
2023-10-19T16:13:43.346Z,91.32
2023-10-19T16:16:16.211Z,91.24
2023-10-19T16:23:22.463Z,91.04
2023-10-19T16:27:49.685Z,91.38
2023-10-19T16:42:43.905Z,92.16
2023-10-19T16:45:22.213Z,91.89
2023-10-19T16:47:52.893Z,92.31
2023-10-19T16:50:29.909Z,92.39
2023-10-19T16:53:15.281Z,92.75
2023-10-19T16:59:42.224Z,93.04
2023-10-19T17:02:24.622Z,92.80
2023-10-19T17:05:06.701Z,93.06
2023-10-19T17:07:55.354Z,92.69
2023-10-19T17:10:24.547Z,92.60
2023-10-19T17:18:18.941Z,92.69
2023-10-19T17:20:57.034Z,92.92
2023-10-19T17:23:48.496Z,93.01
2023-10-19T17:26:17.797Z,93.92
2023-10-19T17:29:06.770Z,93.52
2023-10-19T17:32:00.371Z,93.72
2023-10-19T17:35:05.154Z,93.36
2023-10-19T17:37:58.152Z,93.60
2023-10-19T17:40:48.363Z,93.65
2023-10-19T17:43:27.872Z,93.27
2023-10-19T17:46:00.551Z,93.34
2023-10-19T17:48:35.570Z,92.91
2023-10-19T17:51:22.964Z,92.35
2023-10-19T17:54:07.384Z,92.96
2023-10-19T17:56:51.279Z,92.99
2023-10-19T17:59:25.305Z,92.19
2023-10-19T18:02:24.478Z,92.64
2023-10-19T18:04:56.352Z,92.20
2023-10-19T18:07:45.210Z,91.88
2023-10-19T18:10:33.048Z,91.92
2023-10-19T18:13:26.579Z,91.81
2023-10-19T18:16:37.085Z,92.09
2023-10-19T18:19:23.740Z,91.80
2023-10-19T18:25:04.744Z,92.71
2023-10-19T18:28:00.760Z,92.75
2023-10-19T18:31:18.212Z,92.83
2023-10-19T18:34:17.767Z,92.48
2023-10-19T18:36:53.928Z,92.56
2023-10-19T18:43:23.000Z,92.96
2023-10-19T18:46:33.504Z,92.58
2023-10-19T18:49:42.332Z,92.92
2023-10-19T18:55:32.855Z,92.83
2023-10-19T18:58:26.550Z,92.23
2023-10-19T19:01:01.631Z,91.80
2023-10-19T19:03:33.669Z,91.82
2023-10-19T19:06:17.012Z,91.78
2023-10-19T19:09:05.269Z,92.41
2023-10-19T19:11:36.116Z,92.67
2023-10-19T19:14:03.136Z,92.69
2023-10-19T19:16:42.704Z,92.96
2023-10-19T19:19:19.019Z,93.40
2023-10-19T19:23:12.640Z,92.52
2023-10-19T19:30:48.110Z,92.82
2023-10-19T19:33:26.085Z,92.22
2023-10-19T19:36:09.522Z,91.73
2023-10-19T19:38:48.223Z,92.07
2023-10-19T19:41:29.162Z,91.35
2023-10-19T19:43:57.011Z,91.26
2023-10-19T19:47:27.038Z,91.22
2023-10-19T19:50:33.638Z,91.48
2023-10-19T19:59:14.259Z,91.68
2023-10-19T20:05:55.088Z,90.40
2023-10-19T20:08:25.030Z,91.00
2023-10-19T20:12:24.689Z,90.76
2023-10-19T20:14:55.415Z,90.43
2023-10-19T20:17:39.141Z,90.62
2023-10-19T20:20:18.626Z,90.46
2023-10-19T20:22:47.815Z,90.45
2023-10-19T20:28:47.900Z,90.96
2023-10-19T20:31:27.690Z,90.54
2023-10-19T20:33:57.801Z,90.57
2023-10-19T20:36:24.381Z,91.15
2023-10-19T20:38:50.979Z,90.98
2023-10-19T20:44:04.829Z,90.72
2023-10-19T20:46:31.529Z,90.94
2023-10-19T20:49:00.425Z,90.82
2023-10-19T20:51:29.507Z,91.32
2023-10-19T20:53:59.122Z,90.74
2023-10-19T20:56:27.341Z,90.97
2023-10-19T20:59:00.566Z,90.79
2023-10-19T21:01:30.115Z,91.04
2023-10-19T21:03:56.797Z,90.30
2023-10-19T21:06:31.996Z,90.29
2023-10-19T21:09:04.774Z,91.15
2023-10-19T21:11:33.186Z,91.74
2023-10-19T21:14:01.879Z,91.69
2023-10-19T21:16:28.497Z,91.74
2023-10-19T21:18:58.443Z,91.78
2023-10-19T21:21:25.714Z,91.17
2023-10-19T21:23:54.724Z,91.39
2023-10-19T21:26:21.480Z,91.25
2023-10-19T21:28:49.647Z,91.37
2023-10-19T21:31:16.212Z,91.82
2023-10-19T21:36:41.604Z,91.47
2023-10-19T21:39:09.266Z,91.23
2023-10-19T21:41:35.820Z,91.33
2023-10-19T21:44:02.454Z,91.38
2023-10-19T21:46:31.684Z,91.84
2023-10-19T21:49:03.852Z,91.71
2023-10-19T21:51:31.190Z,91.73
2023-10-19T21:53:57.801Z,91.10
2023-10-19T21:56:26.658Z,91.06
2023-10-19T21:58:53.280Z,90.78
2023-10-19T22:01:22.593Z,90.64
2023-10-19T22:03:51.699Z,91.22
2023-10-19T22:06:20.184Z,91.20
2023-10-19T22:08:46.787Z,91.09
2023-10-19T22:11:13.848Z,91.21
2023-10-19T22:13:40.574Z,91.41
2023-10-19T22:16:08.723Z,91.90
2023-10-19T22:18:35.472Z,92.02
2023-10-19T22:21:02.744Z,92.03
2023-10-19T22:23:29.578Z,91.74
2023-10-19T22:25:57.826Z,91.79
2023-10-19T22:28:24.529Z,91.19
2023-10-19T22:30:51.102Z,91.59
2023-10-19T22:33:17.861Z,91.31
2023-10-19T22:35:44.489Z,90.93
2023-10-19T22:38:11.154Z,90.97
2023-10-19T22:40:38.016Z,90.95
2023-10-19T22:43:04.977Z,91.13
2023-10-19T22:45:32.153Z,91.36
2023-10-19T22:47:59.058Z,91.61
2023-10-19T22:50:26.121Z,91.53
2023-10-19T22:52:53.155Z,91.47
2023-10-19T22:55:19.899Z,91.78
2023-10-19T22:57:52.215Z,91.90
2023-10-19T23:00:19.168Z,91.24
2023-10-19T23:02:49.330Z,91.37
2023-10-19T23:05:17.318Z,91.36
2023-10-19T23:07:45.408Z,91.40
2023-10-19T23:10:12.658Z,91.26
2023-10-19T23:12:41.168Z,90.71
2023-10-19T23:15:16.762Z,91.10
2023-10-19T23:17:43.946Z,91.69
2023-10-19T23:20:44.004Z,91.94
2023-10-19T23:23:15.852Z,92.20
2023-10-19T23:25:51.113Z,92.11
2023-10-19T23:28:17.720Z,91.99
2023-10-19T23:30:44.622Z,91.92
2023-10-19T23:33:11.257Z,91.79
2023-10-19T23:35:37.893Z,91.71
2023-10-19T23:38:07.786Z,91.39
2023-10-19T23:40:35.008Z,90.74
2023-10-19T23:43:03.912Z,91.11
2023-10-19T23:45:30.662Z,91.65
2023-10-19T23:47:57.457Z,92.13
2023-10-19T23:50:24.134Z,91.75
2023-10-19T23:52:51.533Z,91.52
2023-10-19T23:55:18.321Z,91.53
2023-10-19T23:57:44.943Z,90.91
